Time;durP1;ratioP1;P1;durP2;ratioP2;P2;SDS_P1;SDS_P2;PMS_P1;PMS_P2;Temp;Humidity;BMP_temperature;BMP_pressure;BME280_temperature;BME280_humidity;BME280_pressure;Samples;Min_cycle;Max_cycle;Signal;HPM_P1;HPM_P2
2023/01/28 00:02:05;;;;;;;1.90;1.38;;;;;;;;;;4974326;28;20274;-62
2023/01/28 00:04:30;;;;;;;2.00;1.45;;;;;;;;;;4982484;28;20046;-69
2023/01/28 00:06:56;;;;;;;1.90;1.60;;;;;;;;;;4974303;28;20494;-69
2023/01/28 00:09:21;;;;;;;1.92;1.45;;;;;;;;;;4982273;28;20422;-69
2023/01/28 00:11:46;;;;;;;2.10;1.50;;;;;;;;;;4972866;28;20527;-65
2023/01/28 00:14:11;;;;;;;1.83;1.37;;;;;;;;;;4982191;28;20565;-65
2023/01/28 00:16:37;;;;;;;1.80;1.30;;;;;;;;;;4972978;28;20277;-68
2023/01/28 00:19:02;;;;;;;1.95;1.40;;;;;;;;;;4995982;28;20683;-68
2023/01/28 00:21:27;;;;;;;1.93;1.50;;;;;;;;;;4967694;28;20167;-68
2023/01/28 00:23:53;;;;;;;2.03;1.30;;;;;;;;;;4968200;28;20868;-68
2023/01/28 00:26:18;;;;;;;1.77;1.30;;;;;;;;;;4966246;28;20389;-65
2023/01/28 00:28:44;;;;;;;1.90;1.40;;;;;;;;;;4968177;28;20137;-69
2023/01/28 00:31:10;;;;;;;2.00;1.40;;;;;;;;;;4964716;28;20039;-69
2023/01/28 00:33:35;;;;;;;1.67;1.48;;;;;;;;;;4966496;28;20471;-65
2023/01/28 00:36:01;;;;;;;1.50;1.20;;;;;;;;;;4967317;28;20134;-69
2023/01/28 00:38:26;;;;;;;1.80;1.40;;;;;;;;;;4974341;28;20125;-68
2023/01/28 00:40:51;;;;;;;1.88;1.33;;;;;;;;;;4969311;28;20619;-69
2023/01/28 00:43:17;;;;;;;1.83;1.38;;;;;;;;;;4962428;28;20058;-60
2023/01/28 00:45:42;;;;;;;1.93;1.40;;;;;;;;;;4972589;28;20486;-66
2023/01/28 00:48:07;;;;;;;2.30;1.60;;;;;;;;;;4956260;28;20978;-67
2023/01/28 00:50:33;;;;;;;2.10;1.60;;;;;;;;;;4969209;28;20037;-71
2023/01/28 00:52:58;;;;;;;1.63;1.20;;;;;;;;;;4969065;28;20038;-63
2023/01/28 00:55:23;;;;;;;1.93;1.50;;;;;;;;;;4986231;28;20277;-67
2023/01/28 00:57:49;;;;;;;1.60;1.20;;;;;;;;;;4972782;28;20276;-69
2023/01/28 01:00:15;;;;;;;2.25;1.50;;;;;;;;;;5001583;28;20042;-68
2023/01/28 01:02:40;;;;;;;1.67;1.30;;;;;;;;;;4984849;28;20470;-67
2023/01/28 01:05:06;;;;;;;1.50;1.20;;;;;;;;;;4985913;28;20030;-68
2023/01/28 01:07:33;;;;;;;2.30;1.58;;;;;;;;;;4986342;28;20069;-64
2023/01/28 01:09:59;;;;;;;1.67;1.40;;;;;;;;;;4986798;28;20034;-69
2023/01/28 01:12:25;;;;;;;1.60;1.30;;;;;;;;;;5001247;28;20426;-68
2023/01/28 01:14:50;;;;;;;2.33;1.63;;;;;;;;;;4987817;28;20121;-65
2023/01/28 01:17:15;;;;;;;1.70;1.30;;;;;;;;;;4997822;28;20280;-67
2023/01/28 01:19:40;;;;;;;2.05;1.58;;;;;;;;;;4986887;28;20328;-67
2023/01/28 01:22:06;;;;;;;1.80;1.40;;;;;;;;;;4986185;28;20035;-69
2023/01/28 01:24:32;;;;;;;1.80;1.30;;;;;;;;;;4985192;28;20369;-68
2023/01/28 01:26:58;;;;;;;1.80;1.50;;;;;;;;;;4986361;28;20340;-67
2023/01/28 01:29:23;;;;;;;1.85;1.50;;;;;;;;;;4986007;28;20022;-67
2023/01/28 01:31:48;;;;;;;1.87;1.40;;;;;;;;;;4984364;28;20053;-69
2023/01/28 01:34:14;;;;;;;1.47;1.30;;;;;;;;;;4981091;28;20302;-69
2023/01/28 01:36:39;;;;;;;1.87;1.40;;;;;;;;;;4975831;28;20360;-65
2023/01/28 01:39:04;;;;;;;2.00;1.50;;;;;;;;;;4978096;28;20125;-64
2023/01/28 01:41:30;;;;;;;1.70;1.50;;;;;;;;;;4974919;28;20301;-63
2023/01/28 01:43:55;;;;;;;2.15;1.40;;;;;;;;;;4975740;28;20179;-68
2023/01/28 01:46:42;;;;;;;1.80;1.57;;;;;;;;;;4975462;28;20030;-66
2023/01/28 01:49:13;;;;;;;1.83;1.45;;;;;;;;;;4989140;28;20385;-66
2023/01/28 01:51:38;;;;;;;1.67;1.25;;;;;;;;;;4965177;28;20050;-69
2023/01/28 01:54:03;;;;;;;2.00;1.50;;;;;;;;;;4981253;28;20585;-64
2023/01/28 01:56:29;;;;;;;1.87;1.27;;;;;;;;;;4964232;28;20282;-65
2023/01/28 01:58:54;;;;;;;1.58;1.30;;;;;;;;;;4964996;28;20389;-67
2023/01/28 02:01:20;;;;;;;1.87;1.43;;;;;;;;;;4965065;28;20031;-68
2023/01/28 02:04:00;;;;;;;1.92;1.60;;;;;;;;;;5006613;28;20266;-68
2023/01/28 02:06:26;;;;;;;2.35;1.38;;;;;;;;;;4985964;28;20049;-66
2023/01/28 02:08:54;;;;;;;2.05;1.40;;;;;;;;;;4983899;28;20130;-60
2023/01/28 02:11:20;;;;;;;1.80;1.35;;;;;;;;;;4984376;28;20502;-66
2023/01/28 02:13:46;;;;;;;1.80;1.40;;;;;;;;;;4984611;28;20030;-66
2023/01/28 02:16:11;;;;;;;1.77;1.38;;;;;;;;;;4984392;28;20049;-63
2023/01/28 02:18:36;;;;;;;1.93;1.50;;;;;;;;;;4984269;28;20391;-65
2023/01/28 02:21:14;;;;;;;1.70;1.40;;;;;;;;;;4985043;28;20360;-64
2023/01/28 02:23:50;;;;;;;2.00;1.70;;;;;;;;;;4974323;28;20498;-66
2023/01/28 02:26:38;;;;;;;1.88;1.50;;;;;;;;;;4981309;28;20038;-65
2023/01/28 02:29:19;;;;;;;1.95;1.38;;;;;;;;;;4981787;28;20030;-66
2023/01/28 02:31:51;;;;;;;1.80;1.48;;;;;;;;;;4981194;28;20035;-69
2023/01/28 02:34:23;;;;;;;1.70;1.48;;;;;;;;;;4987425;28;20097;-68
2023/01/28 02:37:07;;;;;;;1.90;1.50;;;;;;;;;;4974295;28;20045;-67
2023/01/28 02:39:34;;;;;;;1.42;1.13;;;;;;;;;;5004862;28;20042;-68
2023/01/28 02:42:10;;;;;;;1.88;1.42;;;;;;;;;;4990293;28;20054;-64
2023/01/28 02:44:35;;;;;;;2.25;1.50;;;;;;;;;;4990287;28;20042;-68
2023/01/28 02:49:48;;;;;;;2.35;1.33;;;;;;;;;;5008570;28;20040;-64
2023/01/28 02:55:17;;;;;;;1.75;1.50;;;;;;;;;;5007515;28;20087;-66
2023/01/28 02:57:46;;;;;;;1.88;1.50;;;;;;;;;;4990545;28;20042;-66
2023/01/28 03:00:14;;;;;;;1.77;1.40;;;;;;;;;;4990848;28;20692;-70
2023/01/28 03:02:49;;;;;;;2.00;1.52;;;;;;;;;;5008037;28;20060;-65
2023/01/28 03:05:19;;;;;;;1.92;1.42;;;;;;;;;;4974661;28;20409;-69
2023/01/28 03:07:44;;;;;;;2.00;1.50;;;;;;;;;;4989955;28;20018;-69
2023/01/28 03:10:11;;;;;;;1.95;1.55;;;;;;;;;;4990261;28;20022;-68
2023/01/28 03:37:41;;;;;;;1.85;1.40;;;;;;;;;;4977776;28;20102;-65
2023/01/28 03:40:07;;;;;;;2.17;1.50;;;;;;;;;;4967251;28;20726;-61
2023/01/28 03:42:32;;;;;;;2.10;1.65;;;;;;;;;;4956850;28;20313;-67
2023/01/28 03:45:00;;;;;;;2.10;1.70;;;;;;;;;;4979360;28;20466;-68
2023/01/28 03:47:26;;;;;;;1.73;1.33;;;;;;;;;;4970658;28;20030;-66
2023/01/28 03:49:52;;;;;;;1.98;1.60;;;;;;;;;;4970242;28;20109;-68
2023/01/28 03:52:18;;;;;;;2.33;1.70;;;;;;;;;;4968390;28;20585;-66
2023/01/28 03:54:46;;;;;;;2.30;1.67;;;;;;;;;;4969554;28;20042;-65
2023/01/28 03:57:11;;;;;;;2.40;1.35;;;;;;;;;;4986958;28;20069;-62
2023/01/28 03:59:37;;;;;;;1.65;1.48;;;;;;;;;;4970518;28;20050;-67
2023/01/28 04:02:02;;;;;;;2.47;1.77;;;;;;;;;;4970113;28;20057;-64
2023/01/28 04:04:28;;;;;;;1.80;1.40;;;;;;;;;;4987745;28;20282;-63
2023/01/28 04:06:53;;;;;;;2.22;1.70;;;;;;;;;;4987572;28;20415;-67
2023/01/28 04:09:22;;;;;;;2.20;1.67;;;;;;;;;;4970170;28;20035;-67
2023/01/28 04:11:47;;;;;;;2.05;1.42;;;;;;;;;;4967380;28;20126;-65
2023/01/28 04:14:14;;;;;;;2.00;1.52;;;;;;;;;;4978462;28;20473;-64
2023/01/28 04:16:39;;;;;;;2.00;1.58;;;;;;;;;;4984219;28;20026;-68
2023/01/28 04:19:04;;;;;;;1.90;1.60;;;;;;;;;;4968413;28;20515;-61
2023/01/28 04:21:29;;;;;;;2.33;1.40;;;;;;;;;;4986371;28;20569;-66
2023/01/28 04:23:55;;;;;;;1.70;1.30;;;;;;;;;;4969135;28;20038;-67
2023/01/28 04:26:20;;;;;;;2.55;1.60;;;;;;;;;;4986760;28;20281;-70
2023/01/28 04:28:45;;;;;;;1.88;1.50;;;;;;;;;;4987363;28;20465;-66
2023/01/28 04:31:10;;;;;;;2.00;1.50;;;;;;;;;;4968148;28;20034;-68
2023/01/28 04:33:36;;;;;;;1.73;1.40;;;;;;;;;;4970641;28;20530;-69
2023/01/28 04:36:01;;;;;;;1.60;1.30;;;;;;;;;;4988105;28;20821;-66
2023/01/28 04:38:27;;;;;;;2.00;1.67;;;;;;;;;;5006228;28;20317;-67
2023/01/28 04:40:53;;;;;;;2.10;1.53;;;;;;;;;;4987153;28;20466;-63
2023/01/28 04:43:18;;;;;;;1.73;1.42;;;;;;;;;;5021412;28;20304;-69
2023/01/28 04:45:44;;;;;;;2.35;1.50;;;;;;;;;;5006348;28;20069;-67
2023/01/28 04:48:09;;;;;;;1.52;1.30;;;;;;;;;;4988925;28;20564;-68
2023/01/28 04:50:35;;;;;;;1.80;1.50;;;;;;;;;;5005685;28;20421;-68
2023/01/28 04:53:00;;;;;;;1.67;1.40;;;;;;;;;;4988182;28;21275;-69
2023/01/28 04:55:25;;;;;;;1.80;1.53;;;;;;;;;;5002751;28;20283;-62
2023/01/28 04:57:50;;;;;;;1.77;1.43;;;;;;;;;;5004350;28;20034;-63
2023/01/28 05:00:16;;;;;;;2.47;1.77;;;;;;;;;;4986699;28;20304;-63
2023/01/28 05:02:41;;;;;;;1.70;1.40;;;;;;;;;;5003107;28;20281;-65
2023/01/28 05:05:07;;;;;;;1.63;1.43;;;;;;;;;;4986681;28;20042;-61
2023/01/28 05:07:33;;;;;;;1.85;1.33;;;;;;;;;;4988320;28;20421;-68
2023/01/28 05:09:58;;;;;;;2.00;1.50;;;;;;;;;;5005900;28;20033;-67
2023/01/28 05:12:23;;;;;;;1.57;1.40;;;;;;;;;;5004555;28;20056;-68
2023/01/28 05:14:49;;;;;;;1.70;1.57;;;;;;;;;;5005461;28;20038;-67
2023/01/28 05:17:14;;;;;;;1.90;1.70;;;;;;;;;;4985827;28;20037;-60
2023/01/28 05:19:39;;;;;;;1.73;1.50;;;;;;;;;;5005294;28;20307;-65
2023/01/28 05:22:04;;;;;;;1.92;1.60;;;;;;;;;;4987562;28;20385;-62
2023/01/28 05:24:29;;;;;;;1.77;1.40;;;;;;;;;;5005241;28;20026;-66
2023/01/28 05:26:55;;;;;;;2.03;1.60;;;;;;;;;;4989414;28;20278;-67
2023/01/28 05:29:20;;;;;;;1.95;1.33;;;;;;;;;;4985336;28;20361;-65
2023/01/28 05:31:46;;;;;;;1.90;1.50;;;;;;;;;;4995959;28;20073;-64
2023/01/28 05:34:11;;;;;;;1.60;1.40;;;;;;;;;;4970129;28;20098;-58
2023/01/28 05:36:37;;;;;;;1.77;1.48;;;;;;;;;;4982332;28;20088;-66
2023/01/28 05:39:02;;;;;;;1.97;1.50;;;;;;;;;;4971795;28;20043;-68
2023/01/28 05:41:27;;;;;;;2.05;1.50;;;;;;;;;;4961009;28;20403;-65
2023/01/28 05:43:52;;;;;;;1.37;1.23;;;;;;;;;;4970072;28;20043;-62
2023/01/28 05:46:18;;;;;;;1.97;1.30;;;;;;;;;;4979885;28;20717;-72
2023/01/28 05:48:44;;;;;;;1.50;1.40;;;;;;;;;;4985761;28;20403;-67
2023/01/28 05:51:09;;;;;;;1.88;1.50;;;;;;;;;;4980640;28;20117;-62
2023/01/28 05:53:34;;;;;;;1.80;1.20;;;;;;;;;;4981963;28;20149;-62
2023/01/28 05:56:00;;;;;;;2.00;1.50;;;;;;;;;;4971361;28;20284;-64
2023/01/28 05:58:29;;;;;;;2.60;1.40;;;;;;;;;;4969920;28;20309;-66
2023/01/28 06:00:55;;;;;;;1.80;1.50;;;;;;;;;;4982712;28;20284;-63
2023/01/28 06:03:20;;;;;;;1.77;1.40;;;;;;;;;;4972340;28;20418;-65
2023/01/28 06:05:46;;;;;;;1.50;1.30;;;;;;;;;;4968529;28;20871;-64
2023/01/28 06:08:11;;;;;;;1.83;1.50;;;;;;;;;;4999387;28;20049;-61
2023/01/28 06:10:37;;;;;;;2.23;1.60;;;;;;;;;;4967027;28;20023;-67
2023/01/28 06:13:02;;;;;;;1.85;1.35;;;;;;;;;;4964870;28;20053;-63
2023/01/28 06:15:27;;;;;;;1.80;1.50;;;;;;;;;;4969242;28;20046;-60
2023/01/28 06:17:52;;;;;;;1.52;1.40;;;;;;;;;;4985445;28;20292;-63
2023/01/28 06:20:18;;;;;;;1.60;1.40;;;;;;;;;;4974901;28;20038;-64
2023/01/28 06:22:43;;;;;;;2.20;1.50;;;;;;;;;;4987665;28;20093;-69
2023/01/28 06:25:08;;;;;;;1.73;1.30;;;;;;;;;;4971673;28;20470;-66
2023/01/28 06:27:33;;;;;;;1.60;1.25;;;;;;;;;;4986574;28;20027;-62
2023/01/28 06:29:59;;;;;;;1.92;1.35;;;;;;;;;;4982700;28;20086;-66
2023/01/28 06:32:24;;;;;;;1.77;1.40;;;;;;;;;;4987306;28;20446;-68
2023/01/28 06:34:51;;;;;;;1.83;1.40;;;;;;;;;;4983153;28;20372;-62
2023/01/28 06:37:16;;;;;;;1.55;1.20;;;;;;;;;;5002627;28;20773;-70
2023/01/28 06:39:41;;;;;;;1.73;1.47;;;;;;;;;;4987346;28;20184;-63
2023/01/28 06:42:06;;;;;;;2.20;1.58;;;;;;;;;;4988579;28;20351;-63
2023/01/28 06:44:32;;;;;;;1.40;1.20;;;;;;;;;;5004439;28;20034;-63
2023/01/28 06:46:57;;;;;;;1.60;1.30;;;;;;;;;;4990200;28;20133;-66
2023/01/28 06:49:22;;;;;;;1.95;1.60;;;;;;;;;;4990158;28;20244;-61
2023/01/28 06:51:48;;;;;;;1.80;1.50;;;;;;;;;;5007324;28;20018;-64
2023/01/28 06:54:13;;;;;;;1.87;1.50;;;;;;;;;;4989363;28;20038;-66
2023/01/28 06:56:38;;;;;;;1.83;1.40;;;;;;;;;;5004820;28;20289;-67
2023/01/28 06:59:03;;;;;;;3.60;1.70;;;;;;;;;;5008079;28;20293;-64
2023/01/28 07:01:29;;;;;;;2.33;1.57;;;;;;;;;;4989329;28;20289;-66
2023/01/28 07:03:55;;;;;;;1.90;1.40;;;;;;;;;;4989886;28;21033;-63
2023/01/28 07:06:20;;;;;;;2.35;1.60;;;;;;;;;;4981023;28;20052;-66
2023/01/28 07:08:46;;;;;;;2.23;1.53;;;;;;;;;;5006641;28;20441;-62
2023/01/28 07:11:11;;;;;;;1.98;1.17;;;;;;;;;;5023387;28;20277;-66
2023/01/28 07:13:36;;;;;;;2.53;1.75;;;;;;;;;;5005825;28;20065;-66
2023/01/28 07:16:02;;;;;;;1.90;1.40;;;;;;;;;;5008190;28;20038;-63
2023/01/28 07:18:28;;;;;;;2.97;1.52;;;;;;;;;;5007928;28;20042;-63
2023/01/28 07:20:53;;;;;;;1.55;1.33;;;;;;;;;;4990980;28;20033;-67
2023/01/28 07:23:18;;;;;;;1.50;1.20;;;;;;;;;;5005245;28;20038;-69
2023/01/28 07:25:43;;;;;;;1.80;1.60;;;;;;;;;;4989644;28;20291;-64
2023/01/28 07:28:09;;;;;;;1.60;1.33;;;;;;;;;;5006081;28;20303;-66
2023/01/28 07:30:34;;;;;;;2.13;1.55;;;;;;;;;;5003706;28;20281;-61
2023/01/28 07:32:59;;;;;;;2.03;1.70;;;;;;;;;;4989809;28;20202;-68
2023/01/28 07:35:25;;;;;;;2.53;1.70;;;;;;;;;;5005922;28;20281;-66
2023/01/28 07:37:51;;;;;;;2.55;1.50;;;;;;;;;;4989935;28;20034;-64
2023/01/28 07:40:16;;;;;;;1.70;1.52;;;;;;;;;;5005660;28;20057;-70
2023/01/28 07:42:41;;;;;;;1.67;1.40;;;;;;;;;;4990561;28;20104;-66
2023/01/28 07:45:07;;;;;;;2.30;1.40;;;;;;;;;;4988014;28;20038;-64
2023/01/28 07:47:32;;;;;;;1.90;1.50;;;;;;;;;;4988594;28;20032;-63
2023/01/28 07:49:57;;;;;;;1.80;1.40;;;;;;;;;;4987961;28;20073;-65
2023/01/28 07:52:22;;;;;;;1.95;1.33;;;;;;;;;;4986386;28;20373;-64
2023/01/28 07:54:48;;;;;;;2.83;1.43;;;;;;;;;;5004805;28;20498;-63
2023/01/28 07:57:13;;;;;;;1.73;1.40;;;;;;;;;;4990100;28;20281;-67
2023/01/28 07:59:38;;;;;;;1.70;1.30;;;;;;;;;;5005477;28;20304;-67
2023/01/28 08:02:03;;;;;;;1.53;1.43;;;;;;;;;;5007203;28;20700;-65
2023/01/28 08:04:29;;;;;;;1.70;1.40;;;;;;;;;;5007811;28;20441;-62
2023/01/28 08:06:55;;;;;;;2.33;1.35;;;;;;;;;;5006087;28;20293;-67
2023/01/28 08:09:21;;;;;;;1.95;1.70;;;;;;;;;;4986806;28;20152;-66
2023/01/28 08:11:46;;;;;;;2.07;1.40;;;;;;;;;;4986194;28;20214;-66
2023/01/28 08:14:11;;;;;;;1.83;1.60;;;;;;;;;;5004841;28;20300;-64
2023/01/28 08:16:36;;;;;;;1.83;1.20;;;;;;;;;;4971954;28;20300;-62
2023/01/28 08:19:02;;;;;;;2.72;1.50;;;;;;;;;;4988300;28;20046;-62
2023/01/28 08:21:27;;;;;;;1.80;1.40;;;;;;;;;;4989586;28;20026;-65
2023/01/28 08:23:53;;;;;;;2.10;1.50;;;;;;;;;;5007439;28;20366;-67
2023/01/28 08:26:18;;;;;;;1.83;1.50;;;;;;;;;;4998279;28;20306;-68
2023/01/28 08:28:44;;;;;;;1.80;1.50;;;;;;;;;;5008072;28;20050;-67
2023/01/28 08:31:09;;;;;;;1.90;1.40;;;;;;;;;;5005048;28;20292;-68
2023/01/28 08:33:34;;;;;;;1.65;1.40;;;;;;;;;;5004509;28;21221;-64
2023/01/28 08:36:03;;;;;;;2.10;1.40;;;;;;;;;;4985792;28;20038;-58
2023/01/28 08:38:28;;;;;;;2.30;1.50;;;;;;;;;;4967523;28;20475;-66
2023/01/28 08:40:54;;;;;;;1.90;1.40;;;;;;;;;;4983278;28;20121;-67
2023/01/28 08:43:20;;;;;;;2.33;1.73;;;;;;;;;;4969925;28;20493;-65
2023/01/28 08:45:45;;;;;;;2.17;1.80;;;;;;;;;;4972868;28;20969;-67
2023/01/28 08:48:11;;;;;;;2.73;1.63;;;;;;;;;;5000405;28;20030;-64
2023/01/28 08:50:36;;;;;;;1.98;1.50;;;;;;;;;;4987192;28;20593;-67
2023/01/28 08:53:14;;;;;;;1.65;1.55;;;;;;;;;;4987011;28;20045;-59
2023/01/28 08:55:39;;;;;;;2.20;1.50;;;;;;;;;;5001783;28;20529;-64
2023/01/28 08:58:05;;;;;;;2.77;1.80;;;;;;;;;;4985345;28;20018;-65
2023/01/28 09:00:31;;;;;;;3.35;1.90;;;;;;;;;;4985937;28;21129;-63
2023/01/28 09:02:56;;;;;;;3.75;1.90;;;;;;;;;;4986448;28;20423;-67
2023/01/28 09:05:21;;;;;;;3.07;1.63;;;;;;;;;;4986173;28;20025;-63
2023/01/28 09:07:46;;;;;;;4.10;2.33;;;;;;;;;;4986657;28;20022;-70
2023/01/28 09:10:12;;;;;;;3.70;1.70;;;;;;;;;;4984465;28;20368;-66
2023/01/28 09:12:37;;;;;;;3.17;1.90;;;;;;;;;;4980763;28;20019;-64
2023/01/28 09:15:03;;;;;;;4.97;2.37;;;;;;;;;;4984687;28;20258;-63
2023/01/28 09:17:28;;;;;;;3.33;1.95;;;;;;;;;;4985195;28;20262;-66
2023/01/28 09:19:53;;;;;;;2.73;2.07;;;;;;;;;;4984082;28;20089;-64
2023/01/28 09:22:18;;;;;;;3.90;1.57;;;;;;;;;;4966659;28;20267;-63
2023/01/28 09:24:44;;;;;;;2.97;1.87;;;;;;;;;;4968345;28;20262;-65
2023/01/28 09:27:09;;;;;;;3.38;1.83;;;;;;;;;;4995620;28;20408;-63
2023/01/28 09:29:34;;;;;;;2.70;1.77;;;;;;;;;;4960103;28;20093;-64
2023/01/28 09:31:59;;;;;;;3.67;2.10;;;;;;;;;;4963618;28;20265;-62
2023/01/28 09:34:25;;;;;;;4.40;1.90;;;;;;;;;;4965395;28;20125;-63
2023/01/28 09:36:50;;;;;;;4.93;2.13;;;;;;;;;;4987114;28;20030;-63
2023/01/28 09:39:15;;;;;;;3.40;1.90;;;;;;;;;;4996030;28;20065;-65
2023/01/28 09:42:16;;;;;;;3.43;1.80;;;;;;;;;;4998467;28;20272;-64
2023/01/28 09:44:44;;;;;;;2.97;1.98;;;;;;;;;;4986478;28;20383;-64
2023/01/28 09:47:24;;;;;;;3.45;2.10;;;;;;;;;;4987280;28;20038;-67
2023/01/28 09:49:49;;;;;;;3.58;2.28;;;;;;;;;;4987154;28;20045;-70
2023/01/28 09:52:16;;;;;;;3.90;2.13;;;;;;;;;;4994951;28;20037;-64
2023/01/28 09:54:45;;;;;;;6.80;1.95;;;;;;;;;;4971549;28;20034;-70
2023/01/28 09:57:18;;;;;;;6.17;2.27;;;;;;;;;;4991154;28;20057;-70
2023/01/28 09:59:43;;;;;;;4.35;2.03;;;;;;;;;;4990967;28;20133;-70
2023/01/28 10:02:27;;;;;;;5.13;2.23;;;;;;;;;;5008253;28;20036;-69
2023/01/28 10:05:02;;;;;;;4.90;2.17;;;;;;;;;;4990871;28;20796;-65
2023/01/28 10:07:35;;;;;;;6.00;2.20;;;;;;;;;;5006469;28;20042;-71
2023/01/28 10:10:19;;;;;;;3.60;2.30;;;;;;;;;;4990603;28;20042;-64
2023/01/28 10:12:50;;;;;;;4.53;2.58;;;;;;;;;;5008901;28;20053;-63
2023/01/28 10:15:18;;;;;;;4.53;2.22;;;;;;;;;;4989981;28;20687;-69
2023/01/28 10:17:44;;;;;;;7.35;2.30;;;;;;;;;;5004823;28;20038;-65
2023/01/28 10:20:16;;;;;;;4.57;2.30;;;;;;;;;;4989882;28;20038;-65
2023/01/28 10:22:43;;;;;;;4.00;2.30;;;;;;;;;;5008283;28;20136;-66
2023/01/28 10:25:18;;;;;;;5.80;2.38;;;;;;;;;;5007542;28;20108;-65
2023/01/28 10:27:44;;;;;;;4.28;2.28;;;;;;;;;;4990275;28;20030;-66
2023/01/28 10:30:22;;;;;;;6.13;2.90;;;;;;;;;;4988981;28;20040;-61
2023/01/28 10:33:11;;;;;;;5.10;2.33;;;;;;;;;;4990276;28;20280;-60
2023/01/28 10:35:39;;;;;;;5.43;2.60;;;;;;;;;;4986909;28;20073;-62
2023/01/28 10:38:06;;;;;;;5.95;2.50;;;;;;;;;;4953946;28;20034;-65
2023/01/28 10:40:32;;;;;;;5.32;2.47;;;;;;;;;;4969351;28;20030;-63
2023/01/28 10:42:57;;;;;;;5.03;2.25;;;;;;;;;;4985652;28;20034;-63
2023/01/28 10:45:26;;;;;;;4.17;2.20;;;;;;;;;;4986434;28;20057;-63
2023/01/28 10:48:08;;;;;;;5.05;2.88;;;;;;;;;;4969316;28;20070;-63
2023/01/28 10:50:34;;;;;;;3.97;2.50;;;;;;;;;;4970499;28;20537;-64
2023/01/28 10:53:03;;;;;;;5.25;2.53;;;;;;;;;;4988064;28;20039;-66
2023/01/28 10:55:29;;;;;;;5.18;2.60;;;;;;;;;;4968664;28;20035;-68
2023/01/28 10:57:54;;;;;;;4.68;2.60;;;;;;;;;;4969885;28;20049;-70
2023/01/28 11:00:27;;;;;;;4.50;2.50;;;;;;;;;;4970330;28;20050;-63
2023/01/28 11:02:52;;;;;;;3.80;2.30;;;;;;;;;;4953475;28;20281;-69
2023/01/28 11:05:17;;;;;;;3.88;2.72;;;;;;;;;;4969804;28;20035;-68
2023/01/28 11:07:43;;;;;;;5.10;2.60;;;;;;;;;;4986602;28;20074;-67
2023/01/28 11:10:39;;;;;;;4.25;2.38;;;;;;;;;;4984315;28;20211;-73
2023/01/28 11:13:05;;;;;;;4.05;2.55;;;;;;;;;;4971723;28;20030;-67
2023/01/28 11:15:30;;;;;;;4.45;2.85;;;;;;;;;;4985424;28;20388;-67
2023/01/28 11:18:07;;;;;;;4.50;3.10;;;;;;;;;;4985665;28;20030;-70
2023/01/28 11:20:42;;;;;;;4.90;2.53;;;;;;;;;;4968921;28;20153;-66
2023/01/28 11:23:16;;;;;;;3.88;2.88;;;;;;;;;;4982472;28;20023;-68
2023/01/28 11:25:41;;;;;;;5.07;2.63;;;;;;;;;;4962188;28;20432;-65
2023/01/28 11:28:07;;;;;;;6.27;2.77;;;;;;;;;;4984068;28;20413;-67
2023/01/28 11:30:33;;;;;;;3.38;2.42;;;;;;;;;;4985445;28;20038;-67
2023/01/28 11:32:59;;;;;;;3.47;2.40;;;;;;;;;;4985563;28;20080;-66
2023/01/28 11:35:29;;;;;;;4.07;2.70;;;;;;;;;;4978739;28;20548;-69
2023/01/28 11:37:54;;;;;;;5.95;2.70;;;;;;;;;;4949245;28;20054;-66
2023/01/28 11:40:20;;;;;;;5.57;2.67;;;;;;;;;;4948621;28;20111;-67
2023/01/28 11:42:48;;;;;;;5.75;2.53;;;;;;;;;;4965403;28;20031;-63
2023/01/28 11:45:24;;;;;;;3.83;2.53;;;;;;;;;;4966008;28;20531;-63
2023/01/28 11:48:15;;;;;;;4.82;2.88;;;;;;;;;;4962694;28;20042;-66
2023/01/28 11:50:46;;;;;;;5.40;2.92;;;;;;;;;;4963066;28;20130;-66
2023/01/28 11:53:20;;;;;;;3.70;2.80;;;;;;;;;;4964878;28;20031;-64
2023/01/28 11:55:57;;;;;;;4.22;2.80;;;;;;;;;;4976293;28;20057;-64
2023/01/28 11:58:23;;;;;;;4.15;2.85;;;;;;;;;;4985443;28;20046;-63
2023/01/28 12:00:55;;;;;;;7.17;2.80;;;;;;;;;;4986574;28;20434;-62
2023/01/28 12:03:26;;;;;;;3.10;2.60;;;;;;;;;;4960696;28;20820;-64
2023/01/28 12:05:56;;;;;;;4.20;2.78;;;;;;;;;;4983094;28;20557;-63
2023/01/28 12:08:36;;;;;;;8.60;3.22;;;;;;;;;;4984248;28;20050;-62
2023/01/28 12:11:01;;;;;;;;;;;;;;;;;;4983159;28;20034;-63
2023/01/28 12:13:29;;;;;;;4.63;2.88;;;;;;;;;;4966690;28;20040;-62
2023/01/28 12:16:07;;;;;;;6.15;2.90;;;;;;;;;;4962500;28;20043;-64
2023/01/28 12:18:51;;;;;;;36.40;11.52;;;;;;;;;;4963814;28;20054;-63
2023/01/28 12:21:20;;;;;;;91.35;28.48;;;;;;;;;;4983427;28;20469;-63
2023/01/28 12:24:04;;;;;;;135.68;38.05;;;;;;;;;;4978904;28;20035;-66
2023/01/28 12:26:34;;;;;;;137.90;38.47;;;;;;;;;;4982921;28;20545;-64
2023/01/28 12:29:00;;;;;;;;;;;;;;;;;;4984311;28;20041;-67
2023/01/28 12:31:34;;;;;;;116.38;34.42;;;;;;;;;;4985798;28;19913;-64
2023/01/28 12:34:08;;;;;;;109.22;31.83;;;;;;;;;;4986823;28;20474;-66
2023/01/28 12:36:49;;;;;;;107.90;31.77;;;;;;;;;;4992554;28;20042;-65
2023/01/28 12:39:30;;;;;;;94.22;28.05;;;;;;;;;;5004410;28;20041;-67
2023/01/28 12:42:18;;;;;;;79.88;27.25;;;;;;;;;;5002782;28;20038;-63
2023/01/28 12:44:46;;;;;;;77.43;27.52;;;;;;;;;;4993804;28;20087;-63
2023/01/28 12:47:16;;;;;;;75.00;25.17;;;;;;;;;;5004520;28;20533;-62
2023/01/28 12:49:46;;;;;;;73.32;26.33;;;;;;;;;;4971319;28;20053;-62
2023/01/28 12:52:11;;;;;;;;;;;;;;;;;;4989280;28;20076;-62
2023/01/28 12:54:54;;;;;;;71.80;24.90;;;;;;;;;;5008631;28;19917;-62
2023/01/28 12:57:24;;;;;;;54.95;21.80;;;;;;;;;;4987412;28;20061;-63
2023/01/28 12:59:50;;;;;;;58.72;23.17;;;;;;;;;;5005823;28;20044;-62
2023/01/28 13:02:36;;;;;;;59.80;21.58;;;;;;;;;;5005760;28;20022;-63
2023/01/28 13:05:13;;;;;;;56.13;21.02;;;;;;;;;;4983017;28;20033;-63
2023/01/28 13:07:43;;;;;;;50.17;20.38;;;;;;;;;;4985983;28;20050;-63
2023/01/28 13:10:24;;;;;;;55.25;20.65;;;;;;;;;;5004590;28;20093;-64
2023/01/28 13:12:49;;;;;;;50.42;18.70;;;;;;;;;;4984438;28;20121;-66
2023/01/28 13:15:15;;;;;;;51.67;18.33;;;;;;;;;;5004263;28;20076;-67
2023/01/28 13:17:52;;;;;;;42.78;17.10;;;;;;;;;;5004586;28;20285;-66
2023/01/28 13:20:28;;;;;;;44.75;17.98;;;;;;;;;;5004154;28;20089;-58
2023/01/28 13:22:59;;;;;;;48.20;17.10;;;;;;;;;;4985825;28;20612;-59
2023/01/28 13:25:29;;;;;;;44.83;17.80;;;;;;;;;;5003407;28;20048;-67
2023/01/28 13:27:54;;;;;;;;;;;;;;;;;;4958025;28;20509;-62
2023/01/28 13:30:24;;;;;;;39.00;14.77;;;;;;;;;;5003464;28;20361;-61
2023/01/28 13:32:59;;;;;;;35.35;14.82;;;;;;;;;;4970372;28;20569;-58
2023/01/28 13:35:51;;;;;;;34.10;15.18;;;;;;;;;;4956414;28;20922;-61
2023/01/28 13:38:16;;;;;;;37.55;14.70;;;;;;;;;;4998789;28;20041;-62
2023/01/28 13:40:42;;;;;;;35.75;13.95;;;;;;;;;;4950787;28;20083;-57
2023/01/28 13:43:24;;;;;;;33.23;14.33;;;;;;;;;;4967652;28;20459;-60
2023/01/28 13:45:56;;;;;;;34.50;14.45;;;;;;;;;;5000991;28;20709;-61
2023/01/28 13:48:34;;;;;;;32.28;14.32;;;;;;;;;;4982026;28;20038;-60
2023/01/28 13:51:00;;;;;;;31.45;14.02;;;;;;;;;;4984133;28;20026;-63
2023/01/28 13:53:28;;;;;;;32.20;13.20;;;;;;;;;;4949904;28;20121;-62
2023/01/28 13:55:55;;;;;;;30.58;14.10;;;;;;;;;;4970709;28;20406;-60
2023/01/28 13:58:20;;;;;;;33.92;13.15;;;;;;;;;;4966846;28;20064;-57
2023/01/28 14:01:03;;;;;;;27.40;13.33;;;;;;;;;;4989064;28;20038;-58
2023/01/28 14:04:04;;;;;;;26.50;12.32;;;;;;;;;;4992941;28;20325;-58
2023/01/28 14:06:40;;;;;;;30.05;12.63;;;;;;;;;;4926728;29;20777;-57
2023/01/28 14:09:11;;;;;;;27.50;11.88;;;;;;;;;;4973204;28;20758;-61
2023/01/28 14:11:55;;;;;;;23.73;11.40;;;;;;;;;;4997584;28;20126;-58
2023/01/28 14:14:31;;;;;;;24.23;11.45;;;;;;;;;;5003881;28;20030;-61
2023/01/28 14:16:59;;;;;;;22.73;11.18;;;;;;;;;;4970019;28;20034;-60
2023/01/28 14:19:28;;;;;;;19.88;10.27;;;;;;;;;;4982031;28;20026;-62
2023/01/28 14:21:54;;;;;;;24.80;10.48;;;;;;;;;;4971272;28;20014;-60
2023/01/28 14:24:19;;;;;;;20.48;10.70;;;;;;;;;;4982893;28;20035;-60
2023/01/28 14:26:46;;;;;;;23.17;10.90;;;;;;;;;;4961306;28;20577;-57
2023/01/28 14:29:20;;;;;;;24.23;10.30;;;;;;;;;;4977008;28;20257;-58
2023/01/28 14:31:45;;;;;;;22.33;10.88;;;;;;;;;;4969487;28;20037;-57
2023/01/28 14:34:32;;;;;;;19.17;10.13;;;;;;;;;;4968829;28;20042;-60
2023/01/28 14:37:01;;;;;;;22.20;9.98;;;;;;;;;;4967089;28;20034;-58
2023/01/28 14:39:30;;;;;;;20.30;9.52;;;;;;;;;;4993595;28;20053;-59
2023/01/28 14:41:57;;;;;;;20.40;9.90;;;;;;;;;;4982847;28;20030;-60
2023/01/28 14:44:22;;;;;;;18.23;9.35;;;;;;;;;;4983242;28;20091;-60
2023/01/28 14:46:57;;;;;;;19.57;9.93;;;;;;;;;;5000381;28;20422;-60
2023/01/28 14:49:26;;;;;;;17.35;8.95;;;;;;;;;;4987364;28;20347;-60
2023/01/28 14:51:59;;;;;;;19.55;8.98;;;;;;;;;;4996825;28;20025;-60
2023/01/28 14:54:27;;;;;;;18.08;9.07;;;;;;;;;;5003654;28;20539;-61
2023/01/28 14:57:04;;;;;;;18.42;9.15;;;;;;;;;;4988962;28;20045;-61
2023/01/28 14:59:29;;;;;;;16.77;8.80;;;;;;;;;;4990072;28;20072;-57
2023/01/28 15:01:55;;;;;;;15.57;8.17;;;;;;;;;;5006890;28;20109;-62
2023/01/28 15:04:24;;;;;;;16.40;8.32;;;;;;;;;;5007839;28;20103;-63
2023/01/28 15:06:50;;;;;;;17.88;8.60;;;;;;;;;;5023073;28;20034;-63
2023/01/28 15:09:15;;;;;;;17.50;8.50;;;;;;;;;;4990003;28;20038;-58
2023/01/28 15:11:42;;;;;;;14.43;8.27;;;;;;;;;;5005482;28;20030;-62
2023/01/28 15:14:12;;;;;;;16.25;8.05;;;;;;;;;;5006517;28;20276;-61
2023/01/28 15:16:37;;;;;;;;;;;;;;;;;;4989737;28;20045;-58
2023/01/28 15:19:04;;;;;;;16.20;7.57;;;;;;;;;;5007375;28;19918;-59